Aeroporto :
LOGIN :

Iscrizione | Disclaimer

   EN    FR    IT 

 










Sommario :    VFR   VFR Marginale   IFR   IFR Intensivo   IFR Molto Intensivo
Visibilità : 
Base nubi : 
>= 8 km
>= 3000ft
5 / 8 km
1000 / 3000 ft
1500m / 5 km
500 / 1000 ft
800 / 1500m
200 / 500 ft
< 800m
< 200 ft
Simboli :   Temporali  Nebbia  Neve Forte  Precipitazioni Forti  Vento > 20 kt
SIGMETs :   Varie  Temporali  Ghiacco  Turbolenza  Onda orograficha  Ceneri Vulcaniche







- Altitudine del aeroporto : 359 ft
- Codice IATA : BVA
- Carte del aeroporto


LFOB - Beauvais

ULTIMO METAR :
  • 181000Z AUTO 13008KT CAVOK 06/04 Q1018 NOSIG

METARs OBSOLETI :
  • 180930Z AUTO 14007KT 9999 FEW008 06/04 Q1019 NOSIG
  • 180900Z AUTO 14009KT 9999 OVC006 06/05 Q1019 BECMG NSC
  • 180830Z AUTO 13009KT 6000 OVC006 06/05 Q1018 BECMG NSC
  • 180800Z AUTO 16010KT 9999 OVC006 07/06 Q1019 TEMPO OVC003
  • 180730Z AUTO 16008KT 9999 OVC005 07/06 Q1019 NOSIG

TAF TAF LFOB
Valido dal 18 a 06 ore il 19 a 06 ore UTC


180500Z 1806/1906 18010KT 9999 OVC007
TEMPO 1806/1810 OVC003
BECMG 1810/1812 CAVOK
BECMG 1819/1821 18015G25KT BKN015
BECMG 1821/1824 RA OVC013
BECMG 1900/1903 18015KT NSW
TEMPO 1903/1906 OVC005
ATIS : +33 3 44 11 49 28
Nessun NOTAM noto per questo aeroporto.



MetMap, La meteo Aeronautica in un colpo d'occhio ! - Copyright ORBIFLY Dicembre 2007 - Disclaimer

ORBIFLY MET'MAP TEAM :

Programmazione e sviluppo : Alexandra Zaïnal
Concezione e sviluppo : Baudouin d'Aumeries
Co-Programmazione e sviluppo : Marc-Olivier Méhu
Supporto tecnico e logistico : Manuel Goepfert
Aiuto per la traduzione : Arnaldo La Scala

Contatto : metmap@orbifly.com




FONTI E CREDITI :

   NOAA